Terminal Aerodrome Forecast
Issued by NWS Wilmington, OH

Current Version | Previous Version | Graphics & Text | Print | Product List | Glossary On
Versions: 1 2 3 4 5 6 7 8 9 10 11 12 13 14 15 16 17 18 19 20 21 22 23 24 25 26 27 28 29 30
184
FTUS41 KILN 180903 AAA
TAFCVG
TAF AMD
KCVG 180903Z 1809/1912 26012KT P6SM VCSH OVC012
      TEMPO 1809/1812 5SM -DZ BR OVC008
     FM181200 26008KT P6SM OVC009
     FM181500 25008KT P6SM OVC015
     FM190000 20005KT P6SM SCT025
     FM190600 19004KT P6SM BKN250=

USA.gov is the U.S. government's official web portal to all federal, state and local government web resources and services.